Time;durP1;ratioP1;P1;durP2;ratioP2;P2;SDS_P1;SDS_P2;PMS_P1;PMS_P2;Temp;Humidity;BMP_temperature;BMP_pressure;BME280_temperature;BME280_humidity;BME280_pressure;Samples;Min_cycle;Max_cycle;Signal;HPM_P1;HPM_P2
2022/01/20 00:04:04;;;;;;;4.72;2.65;;;18.70;57.70;;;;;;10488474;28;20039;-62
2022/01/20 00:09:31;;;;;;;5.57;2.42;;;18.70;57.70;;;;;;10513438;28;20060;-62
2022/01/20 00:37:14;;;;;;;4.95;2.28;;;18.80;57.10;;;;;;10487090;28;20779;-63
2022/01/20 00:40:54;;;;;;;6.40;2.88;;;18.90;57.10;;;;;;10527586;28;20036;-62
2022/01/20 00:45:54;;;;;;;5.03;2.08;;;18.80;57.10;;;;;;10499581;28;20020;-62
2022/01/20 00:50:55;;;;;;;5.07;2.03;;;18.70;57.40;;;;;;10503903;28;20085;-62
2022/01/20 00:55:57;;;;;;;5.03;2.00;;;18.70;57.30;;;;;;10498757;28;20016;-62
2022/01/20 01:00:58;;;;;;;4.15;1.90;;;18.60;57.60;;;;;;10485532;28;20047;-62
2022/01/20 01:06:14;;;;;;;7.38;2.33;;;18.70;57.40;;;;;;10515362;28;20017;-62
2022/01/20 01:11:14;;;;;;;5.53;2.55;;;18.60;57.40;;;;;;10500135;28;20048;-62
2022/01/20 01:16:21;;;;;;;3.92;1.60;;;18.70;57.40;;;;;;10502648;28;20468;-62
2022/01/20 01:22:23;;;;;;;4.38;2.45;;;18.70;57.30;;;;;;10512787;28;20029;-62
2022/01/20 01:26:51;;;;;;;4.22;1.63;;;18.70;57.30;;;;;;10500209;28;20036;-62
2022/01/20 01:31:52;;;;;;;5.47;1.65;;;18.80;57.00;;;;;;10504141;28;20041;-62
2022/01/20 01:42:00;;;;;;;3.28;1.40;;;18.80;56.70;;;;;;10512781;28;20032;-62
2022/01/20 01:47:02;;;;;;;4.40;1.60;;;18.80;56.90;;;;;;10509948;28;20028;-63
2022/01/20 01:52:03;;;;;;;4.75;1.75;;;18.80;56.80;;;;;;10492256;28;20074;-62
2022/01/20 01:57:06;;;;;;;3.63;1.80;;;18.70;56.90;;;;;;10497182;28;20032;-61
2022/01/20 02:02:08;;;;;;;4.32;1.70;;;18.80;56.90;;;;;;10496889;28;20036;-62
2022/01/20 02:22:52;;;;;;;4.07;1.80;;;18.80;58.90;;;;;;10498155;28;20036;-62
2022/01/20 02:27:55;;;;;;;4.35;1.92;;;18.80;58.90;;;;;;10494847;28;20029;-62
2022/01/20 02:33:07;;;;;;;3.20;1.80;;;18.80;59.00;;;;;;10504238;28;20032;-62
2022/01/20 02:38:34;;;;;;;2.60;1.40;;;18.70;59.10;;;;;;10500896;28;20036;-62
2022/01/20 02:48:52;;;;;;;4.53;1.50;;;18.70;59.00;;;;;;10508219;28;20480;-62
2022/01/20 02:53:53;;;;;;;11.45;2.15;;;18.60;59.00;;;;;;10481206;28;20035;-62
2022/01/20 02:58:53;;;;;;;3.85;1.95;;;18.70;59.00;;;;;;10499891;28;20035;-62
2022/01/20 03:03:55;;;;;;;4.53;1.55;;;18.70;58.70;;;;;;10523621;28;20536;-62
2022/01/20 03:08:56;;;;;;;3.60;1.48;;;18.70;58.70;;;;;;10502421;28;20460;-63
2022/01/20 03:13:57;;;;;;;4.55;1.77;;;18.70;58.50;;;;;;10507010;28;20029;-62
2022/01/20 03:18:58;;;;;;;2.83;1.30;;;18.60;58.70;;;;;;10499245;28;20396;-62
2022/01/20 03:23:59;;;;;;;3.53;1.45;;;18.70;58.50;;;;;;10490383;28;20027;-63
2022/01/20 03:29:00;;;;;;;3.58;1.48;;;18.60;58.70;;;;;;10505783;28;20411;-63
2022/01/20 03:34:01;;;;;;;5.35;1.73;;;18.70;58.50;;;;;;10473544;28;20135;-63
2022/01/20 03:39:04;;;;;;;3.28;1.08;;;18.70;58.50;;;;;;10501478;28;20506;-62
2022/01/20 03:44:05;;;;;;;2.65;1.25;;;18.70;58.40;;;;;;10491651;28;20024;-63
2022/01/20 03:49:10;;;;;;;3.33;1.63;;;18.60;58.50;;;;;;10517812;28;20111;-62
2022/01/20 03:54:11;;;;;;;2.83;0.90;;;18.70;58.40;;;;;;10480742;28;20042;-62
2022/01/20 03:59:12;;;;;;;3.17;1.45;;;18.70;58.20;;;;;;10522856;28;20047;-63
2022/01/20 04:04:13;;;;;;;4.30;1.70;;;18.70;58.00;;;;;;10499960;28;20036;-63
2022/01/20 04:09:14;;;;;;;2.40;1.05;;;18.70;58.20;;;;;;10476404;28;20032;-62
2022/01/20 04:14:15;;;;;;;3.65;1.50;;;18.70;58.10;;;;;;10508269;28;20024;-62
2022/01/20 04:19:18;;;;;;;2.28;0.90;;;18.60;57.90;;;;;;10470379;28;20048;-62
2022/01/20 04:24:18;;;;;;;3.33;1.00;;;18.70;57.80;;;;;;10484466;28;20157;-65
2022/01/20 04:29:19;;;;;;;4.40;1.33;;;18.70;57.90;;;;;;10509549;28;20123;-62
2022/01/20 04:34:20;;;;;;;6.30;1.63;;;18.70;57.70;;;;;;10480971;28;1063424;-63
2022/01/20 04:39:25;;;;;;;3.90;1.80;;;18.80;57.50;;;;;;10507002;28;20060;-62
2022/01/20 04:44:39;;;;;;;2.75;1.00;;;18.90;57.30;;;;;;10477925;28;20036;-63
2022/01/20 05:00:19;;;;;;;2.53;1.00;;;18.70;57.70;;;;;;10500385;28;20688;-62
2022/01/20 05:05:19;;;;;;;3.72;1.05;;;18.70;57.80;;;;;;10539098;28;20107;-61
2022/01/20 05:10:20;;;;;;;3.00;1.30;;;18.70;57.60;;;;;;10490400;28;20024;-62
2022/01/20 05:15:23;;;;;;;4.72;1.20;;;18.70;57.60;;;;;;10494654;28;20496;-61
2022/01/20 05:20:24;;;;;;;5.80;0.98;;;18.60;57.50;;;;;;10481533;28;20380;-61
2022/01/20 05:25:25;;;;;;;4.15;1.13;;;18.60;57.60;;;;;;10527009;28;20039;-61
2022/01/20 05:30:26;;;;;;;4.05;1.17;;;18.70;57.20;;;;;;10492473;28;20052;-61
2022/01/20 05:35:29;;;;;;;2.28;1.10;;;18.80;56.70;;;;;;10509910;28;20059;-61
2022/01/20 05:40:30;;;;;;;3.25;1.00;;;18.80;56.90;;;;;;10509150;28;20624;-62
2022/01/20 05:45:32;;;;;;;3.38;1.15;;;18.80;56.80;;;;;;10501373;28;20060;-61
2022/01/20 05:50:33;;;;;;;2.15;0.88;;;18.80;56.80;;;;;;10491398;28;20047;-61
2022/01/20 05:55:37;;;;;;;4.10;1.00;;;18.80;56.90;;;;;;10507524;28;20131;-60
2022/01/20 06:00:38;;;;;;;4.47;1.23;;;18.90;57.10;;;;;;10497410;28;20110;-60
2022/01/20 06:05:39;;;;;;;4.07;1.08;;;18.70;57.70;;;;;;10507249;28;20036;-58
2022/01/20 06:10:40;;;;;;;3.65;1.15;;;18.70;58.00;;;;;;10511334;28;20028;-59
2022/01/20 06:15:41;;;;;;;5.75;1.35;;;18.70;58.10;;;;;;10509867;28;20036;-61
2022/01/20 06:20:42;;;;;;;4.70;1.10;;;18.60;58.70;;;;;;10511029;28;20032;-62
2022/01/20 06:25:43;;;;;;;6.80;2.17;;;18.50;59.10;;;;;;10495605;28;20040;-62
2022/01/20 06:30:44;;;;;;;3.85;1.75;;;18.40;59.60;;;;;;10500583;28;20028;-63
2022/01/20 06:35:45;;;;;;;9.65;1.90;;;18.30;60.00;;;;;;10472318;28;20043;-61
2022/01/20 06:40:46;;;;;;;9.05;1.73;;;18.10;60.20;;;;;;10481704;28;20492;-64
2022/01/20 06:45:48;;;;;;;7.30;2.40;;;18.10;60.80;;;;;;10494264;28;20033;-64
2022/01/20 06:50:49;;;;;;;4.65;1.20;;;18.00;60.00;;;;;;10492987;28;20028;-62
2022/01/20 06:55:49;;;;;;;8.90;2.30;;;17.80;60.20;;;;;;10508855;28;20030;-65
2022/01/20 07:00:50;;;;;;;6.10;1.52;;;17.80;60.30;;;;;;10476216;28;20161;-66
2022/01/20 07:05:51;;;;;;;9.73;2.10;;;17.60;60.30;;;;;;10496457;28;20751;-65
2022/01/20 07:10:52;;;;;;;8.38;1.85;;;17.60;59.90;;;;;;10535399;28;20060;-64
2022/01/20 07:15:54;;;;;;;6.70;2.60;;;17.50;60.20;;;;;;10483538;28;20059;-64
2022/01/20 07:20:55;;;;;;;5.97;2.55;;;17.50;60.10;;;;;;10507089;28;20031;-64
2022/01/20 07:25:56;;;;;;;8.05;1.95;;;17.40;60.20;;;;;;10524381;28;20028;-63
2022/01/20 07:30:56;;;;;;;9.88;1.98;;;17.30;59.80;;;;;;10535131;28;20093;-63
2022/01/20 07:35:57;;;;;;;7.15;1.80;;;17.30;59.60;;;;;;10492423;28;20111;-62
2022/01/20 07:40:58;;;;;;;8.52;2.03;;;17.20;60.30;;;;;;10480484;28;20033;-62
2022/01/20 07:45:59;;;;;;;9.00;2.47;;;17.20;59.60;;;;;;10475115;28;20062;-62
2022/01/20 07:51:00;;;;;;;8.63;1.83;;;17.20;59.50;;;;;;10493547;28;20082;-62
2022/01/20 07:56:02;;;;;;;9.75;1.40;;;17.10;59.50;;;;;;10472426;28;20039;-63
2022/01/20 08:01:05;;;;;;;4.85;1.33;;;17.10;59.50;;;;;;10456098;28;20020;-63
2022/01/20 08:06:05;;;;;;;5.95;1.92;;;17.00;59.40;;;;;;10506537;28;20597;-62
2022/01/20 08:11:06;;;;;;;5.22;1.70;;;17.00;59.20;;;;;;10511923;28;20028;-62
2022/01/20 08:16:07;;;;;;;7.35;1.98;;;16.90;59.30;;;;;;10492563;28;20170;-61
2022/01/20 08:21:07;;;;;;;4.63;1.45;;;16.90;59.20;;;;;;10475863;28;20538;-62
2022/01/20 08:26:08;;;;;;;5.45;1.38;;;16.80;59.20;;;;;;10494219;28;20043;-62
2022/01/20 08:31:09;;;;;;;5.15;1.80;;;16.80;59.00;;;;;;10475216;28;20499;-62
2022/01/20 08:36:10;;;;;;;5.47;1.65;;;16.80;59.10;;;;;;10488279;28;20392;-62
2022/01/20 08:41:11;;;;;;;6.10;1.50;;;16.80;59.00;;;;;;10475578;28;20032;-62
2022/01/20 08:46:12;;;;;;;6.53;1.40;;;16.80;59.30;;;;;;10493767;28;20347;-62
2022/01/20 08:51:13;;;;;;;4.47;1.42;;;16.80;59.10;;;;;;10475461;28;20063;-61
2022/01/20 08:56:14;;;;;;;6.55;1.42;;;16.80;59.00;;;;;;10479723;28;20128;-62
2022/01/20 09:01:14;;;;;;;4.95;1.60;;;16.80;59.10;;;;;;10482862;28;20024;-62
2022/01/20 09:06:15;;;;;;;7.15;1.73;;;16.80;59.10;;;;;;10515965;28;20422;-62
2022/01/20 09:11:22;;;;;;;5.25;1.63;;;16.80;59.00;;;;;;10542315;28;20388;-63
2022/01/20 09:16:22;;;;;;;6.32;1.80;;;16.80;58.70;;;;;;10524919;28;20072;-62
2022/01/20 09:21:24;;;;;;;4.65;1.67;;;16.90;58.70;;;;;;10523911;28;20548;-62
2022/01/20 09:26:24;;;;;;;5.40;1.63;;;16.90;58.60;;;;;;10523585;28;20517;-60
2022/01/20 09:31:27;;;;;;;5.78;1.88;;;16.90;58.70;;;;;;10523168;28;20164;-62
2022/01/20 09:36:28;;;;;;;4.38;1.27;;;16.90;58.70;;;;;;10500815;28;20046;-62
2022/01/20 09:41:28;;;;;;;3.10;1.15;;;16.90;58.70;;;;;;10481431;28;20066;-62
2022/01/20 09:46:29;;;;;;;5.20;1.20;;;16.90;58.70;;;;;;10481365;28;20191;-62
2022/01/20 09:51:30;;;;;;;4.03;1.30;;;17.00;58.70;;;;;;10481097;28;20025;-62
2022/01/20 09:56:32;;;;;;;3.08;1.33;;;17.00;58.50;;;;;;10494106;28;20065;-61
2022/01/20 10:01:48;;;;;;;5.65;1.20;;;17.00;58.60;;;;;;10480549;28;20028;-62
2022/01/20 10:06:52;;;;;;;3.05;1.27;;;17.00;58.80;;;;;;10536064;28;20111;-62
2022/01/20 10:11:53;;;;;;;3.25;1.13;;;16.90;58.90;;;;;;10540040;28;20472;-62
2022/01/20 10:16:54;;;;;;;3.85;1.20;;;16.80;58.90;;;;;;10521797;28;20028;-62
2022/01/20 10:21:55;;;;;;;3.80;1.73;;;16.90;58.90;;;;;;10539689;28;20038;-61
2022/01/20 10:26:56;;;;;;;4.35;1.38;;;16.90;58.90;;;;;;10521283;28;20433;-62
2022/01/20 10:31:56;;;;;;;4.80;1.20;;;16.90;58.70;;;;;;10536244;28;20135;-62
2022/01/20 10:37:13;;;;;;;4.47;1.50;;;16.90;58.90;;;;;;10479241;28;20092;-62
2022/01/20 10:42:20;;;;;;;3.20;0.90;;;16.90;58.90;;;;;;10480091;28;20028;-62
2022/01/20 10:47:29;;;;;;;4.88;1.52;;;16.90;58.80;;;;;;10462868;28;20476;-62
2022/01/20 10:52:35;;;;;;;4.47;1.30;;;16.90;59.30;;;;;;10496388;28;20036;-62
2022/01/20 10:57:36;;;;;;;3.97;1.15;;;16.80;59.40;;;;;;10496211;28;20302;-62
2022/01/20 11:02:36;;;;;;;2.78;1.27;;;16.80;59.40;;;;;;10480917;28;20484;-62
2022/01/20 11:07:39;;;;;;;2.83;1.00;;;16.80;59.90;;;;;;10519648;28;20027;-62
2022/01/20 11:12:41;;;;;;;2.97;0.93;;;16.80;60.10;;;;;;10519708;28;20024;-61
2022/01/20 11:17:43;;;;;;;4.00;1.10;;;16.80;60.00;;;;;;10518909;28;20361;-60
2022/01/20 11:23:03;;;;;;;6.00;1.73;;;16.80;60.00;;;;;;10519103;28;20039;-62
2022/01/20 11:28:12;;;;;;;;;;;16.70;59.90;;;;;;10520069;28;20028;-61
2022/01/20 11:33:18;;;;;;;2.83;1.13;;;16.80;59.80;;;;;;10523169;28;20391;-62
2022/01/20 11:38:36;;;;;;;3.38;1.10;;;16.80;59.70;;;;;;10460797;28;20393;-62
2022/01/20 11:43:46;;;;;;;4.13;1.38;;;16.80;59.50;;;;;;10478938;28;20036;-62
2022/01/20 11:49:08;;;;;;;4.18;1.20;;;16.80;59.50;;;;;;10494459;28;20472;-62
2022/01/20 11:54:11;;;;;;;5.80;1.55;;;16.80;59.50;;;;;;10460146;28;20036;-61
2022/01/20 11:59:15;;;;;;;3.33;0.93;;;16.80;59.50;;;;;;10476443;28;20133;-62
2022/01/20 12:04:17;;;;;;;4.68;1.20;;;16.80;59.40;;;;;;10492608;28;20463;-62
2022/01/20 12:09:35;;;;;;;6.10;1.65;;;16.80;59.60;;;;;;10517737;28;20020;-62
2022/01/20 12:14:38;;;;;;;4.65;1.38;;;16.70;59.60;;;;;;10535540;28;20143;-62
2022/01/20 12:19:39;;;;;;;4.10;1.20;;;16.70;59.60;;;;;;10501047;28;20114;-61
2022/01/20 12:24:51;;;;;;;4.00;1.50;;;16.70;59.50;;;;;;10535415;28;20047;-62
2022/01/20 12:29:53;;;;;;;4.43;1.20;;;16.70;59.20;;;;;;10520163;28;20083;-62
2022/01/20 12:35:02;;;;;;;3.90;1.13;;;16.80;59.10;;;;;;10497854;28;20055;-62
2022/01/20 12:40:16;;;;;;;3.35;0.98;;;16.80;59.10;;;;;;10483990;28;20029;-62
2022/01/20 12:51:02;;;;;;;4.18;1.13;;;16.60;59.30;;;;;;10486613;28;20029;-62
2022/01/20 12:56:09;;;;;;;5.90;1.63;;;16.50;59.40;;;;;;10512082;28;20024;-62
2022/01/20 13:01:10;;;;;;;4.75;1.48;;;16.50;59.60;;;;;;10542736;28;20395;-62
2022/01/20 13:06:26;;;;;;;2.65;1.00;;;16.40;59.90;;;;;;10492021;28;20111;-62
2022/01/20 13:11:39;;;;;;;4.57;1.27;;;16.40;59.80;;;;;;10484520;28;20366;-62
2022/01/20 13:16:54;;;;;;;3.53;1.10;;;16.40;58.90;;;;;;10466238;28;20085;-61
2022/01/20 13:21:55;;;;;;;5.47;1.88;;;16.50;58.60;;;;;;10529049;28;20028;-62
2022/01/20 13:26:57;;;;;;;3.67;1.10;;;16.50;58.40;;;;;;10523822;28;20118;-62
2022/01/20 13:31:58;;;;;;;5.68;0.90;;;16.60;58.20;;;;;;10520367;28;20075;-62
2022/01/20 13:36:59;;;;;;;4.70;1.65;;;16.60;58.10;;;;;;10520720;28;20108;-62
2022/01/20 13:47:30;;;;;;;;;;;16.70;57.90;;;;;;10482395;28;20036;-62
2022/01/20 13:52:39;;;;;;;3.10;0.90;;;16.80;57.70;;;;;;10498710;28;19913;-62
2022/01/20 13:57:41;;;;;;;4.10;1.10;;;16.80;57.80;;;;;;10480977;28;20423;-61
2022/01/20 14:02:48;;;;;;;3.35;1.20;;;16.80;57.70;;;;;;10484065;28;20024;-62
2022/01/20 14:07:49;;;;;;;4.07;1.20;;;16.80;57.60;;;;;;10523177;28;20028;-62
2022/01/20 14:12:50;;;;;;;3.08;1.08;;;16.80;57.50;;;;;;10539959;28;20032;-62
2022/01/20 14:17:53;;;;;;;4.60;1.52;;;16.80;57.40;;;;;;10521747;28;20063;-62
2022/01/20 14:22:56;;;;;;;2.10;0.80;;;16.90;57.20;;;;;;10521953;28;20024;-62
2022/01/20 14:27:58;;;;;;;2.90;0.90;;;16.90;57.00;;;;;;10521555;28;20039;-62
2022/01/20 14:33:00;;;;;;;2.80;0.80;;;17.00;57.00;;;;;;10509601;28;20135;-62
2022/01/20 14:38:02;;;;;;;4.53;1.08;;;17.00;57.10;;;;;;10523658;28;20020;-62
2022/01/20 14:43:03;;;;;;;3.95;1.23;;;17.00;57.00;;;;;;10479497;28;20032;-62
2022/01/20 14:48:04;;;;;;;4.68;1.02;;;17.00;57.00;;;;;;10462352;28;20050;-61
2022/01/20 14:53:05;;;;;;;5.55;1.10;;;17.10;56.90;;;;;;10477808;28;20035;-62
2022/01/20 14:58:06;;;;;;;3.03;1.17;;;17.10;56.90;;;;;;10478843;28;20051;-62
2022/01/20 15:03:06;;;;;;;3.22;0.95;;;17.00;57.60;;;;;;10502730;28;20032;-62
2022/01/20 15:08:07;;;;;;;3.28;1.35;;;17.00;57.20;;;;;;10538301;28;20028;-62
2022/01/20 15:13:09;;;;;;;3.83;0.90;;;17.00;56.90;;;;;;10520085;28;20035;-62
2022/01/20 15:18:10;;;;;;;3.90;1.25;;;17.00;57.00;;;;;;10495763;28;20029;-60
2022/01/20 15:23:11;;;;;;;2.38;0.85;;;17.00;57.20;;;;;;10478219;28;20025;-62
2022/01/20 15:28:12;;;;;;;4.10;0.90;;;17.00;57.80;;;;;;10460796;28;20065;-62
2022/01/20 15:33:14;;;;;;;3.35;1.15;;;16.90;57.20;;;;;;10507558;28;20040;-62
2022/01/20 15:38:15;;;;;;;3.35;0.82;;;16.90;57.30;;;;;;10489292;28;20024;-62
2022/01/20 15:43:16;;;;;;;4.03;1.15;;;17.00;57.20;;;;;;10501762;28;20507;-62
2022/01/20 15:48:17;;;;;;;3.03;1.20;;;17.00;57.00;;;;;;10536776;28;20118;-62
2022/01/20 15:53:18;;;;;;;3.10;1.17;;;17.00;56.90;;;;;;10536009;28;20032;-62
2022/01/20 15:58:18;;;;;;;3.15;1.02;;;17.10;56.90;;;;;;10521041;28;20068;-62
2022/01/20 16:03:19;;;;;;;4.53;1.35;;;17.00;57.00;;;;;;10523551;28;20056;-60
2022/01/20 16:08:20;;;;;;;3.55;0.90;;;17.00;56.90;;;;;;10485714;28;20020;-60
2022/01/20 16:13:21;;;;;;;2.92;0.98;;;17.10;56.80;;;;;;10491982;28;20036;-60
2022/01/20 16:18:22;;;;;;;4.85;1.15;;;17.10;56.30;;;;;;10501497;28;20127;-58
2022/01/20 16:23:23;;;;;;;2.58;1.05;;;17.10;56.00;;;;;;10477478;28;20039;-58
2022/01/20 16:28:24;;;;;;;3.15;0.80;;;17.20;55.40;;;;;;10496167;28;20051;-57
2022/01/20 16:33:25;;;;;;;3.22;0.80;;;17.30;55.00;;;;;;10534405;28;20032;-58
2022/01/20 16:38:25;;;;;;;2.45;1.00;;;17.40;55.00;;;;;;10495996;28;20473;-58
2022/01/20 16:43:27;;;;;;;5.22;1.30;;;17.50;55.60;;;;;;10465771;28;20384;-58
2022/01/20 16:48:27;;;;;;;3.08;1.05;;;17.60;55.70;;;;;;10517352;28;20381;-58
2022/01/20 16:53:29;;;;;;;3.30;1.00;;;17.70;55.60;;;;;;10495463;28;20036;-58
2022/01/20 16:58:30;;;;;;;4.75;1.67;;;17.80;55.80;;;;;;10487718;28;20028;-58
2022/01/20 17:03:31;;;;;;;1.70;0.90;;;17.90;56.90;;;;;;10494647;28;20036;-58
2022/01/20 17:08:31;;;;;;;9.32;1.40;;;17.90;55.90;;;;;;10480895;28;20052;-58
2022/01/20 17:13:32;;;;;;;5.18;1.15;;;17.80;54.30;;;;;;10490482;28;20020;-59
2022/01/20 17:18:33;;;;;;;8.32;1.85;;;17.70;56.80;;;;;;10484247;28;20021;-62
2022/01/20 17:23:34;;;;;;;8.60;1.60;;;17.60;57.60;;;;;;10513918;28;20090;-59
2022/01/20 17:28:35;;;;;;;6.22;1.30;;;17.60;57.50;;;;;;10526921;28;20103;-60
2022/01/20 17:33:36;;;;;;;8.75;2.00;;;17.60;57.50;;;;;;10520703;28;20556;-58
2022/01/20 17:38:36;;;;;;;7.28;1.98;;;17.60;58.00;;;;;;10484160;28;20031;-59
2022/01/20 17:43:37;;;;;;;7.30;1.42;;;17.40;57.90;;;;;;10483824;28;20052;-59
2022/01/20 17:48:38;;;;;;;9.05;2.10;;;17.30;58.10;;;;;;10499750;28;20102;-59
2022/01/20 17:53:39;;;;;;;6.50;1.70;;;17.30;58.30;;;;;;10491905;28;20036;-58
2022/01/20 17:58:40;;;;;;;8.82;1.50;;;17.30;58.40;;;;;;10506338;28;20028;-57
2022/01/20 18:03:41;;;;;;;5.75;1.70;;;17.20;58.30;;;;;;10508413;28;20214;-57
2022/01/20 18:08:42;;;;;;;8.23;1.38;;;17.20;58.10;;;;;;10509231;28;20501;-58
2022/01/20 18:13:43;;;;;;;7.35;1.90;;;17.10;58.10;;;;;;10495873;28;20046;-58
2022/01/20 18:18:43;;;;;;;10.50;2.08;;;17.20;57.90;;;;;;10480623;28;20029;-58
2022/01/20 18:23:44;;;;;;;6.88;1.60;;;17.20;57.70;;;;;;10527575;28;20119;-58
2022/01/20 18:28:45;;;;;;;10.15;1.98;;;17.20;57.60;;;;;;10491296;28;20115;-59
2022/01/20 18:33:46;;;;;;;6.55;1.33;;;17.20;57.50;;;;;;10492287;28;20265;-58
2022/01/20 18:38:47;;;;;;;9.15;1.85;;;17.20;57.30;;;;;;10495830;28;20036;-59
2022/01/20 18:43:48;;;;;;;5.28;1.60;;;17.20;57.90;;;;;;10520631;28;20035;-59
2022/01/20 18:48:48;;;;;;;4.57;1.10;;;17.30;58.40;;;;;;10522224;28;20572;-59
2022/01/20 18:53:49;;;;;;;6.90;1.75;;;17.20;57.80;;;;;;10503063;28;20451;-59
2022/01/20 18:58:50;;;;;;;3.47;1.45;;;17.20;57.90;;;;;;10509820;28;20028;-59
2022/01/20 19:03:51;;;;;;;3.63;0.70;;;17.20;57.80;;;;;;10502407;28;20067;-60
2022/01/20 19:08:52;;;;;;;3.58;1.08;;;17.20;57.80;;;;;;10520591;28;20485;-59
2022/01/20 19:13:53;;;;;;;2.97;0.90;;;17.20;57.90;;;;;;10518723;28;20082;-59
2022/01/20 19:18:55;;;;;;;3.28;1.33;;;17.20;57.70;;;;;;10487514;28;20039;-59
2022/01/20 19:23:55;;;;;;;4.57;1.33;;;17.20;57.70;;;;;;10503328;28;20103;-58
2022/01/20 19:28:56;;;;;;;3.10;1.08;;;17.20;57.70;;;;;;10498656;28;20048;-59
2022/01/20 19:33:57;;;;;;;4.35;1.20;;;17.20;57.90;;;;;;10497272;28;20045;-58
2022/01/20 19:38:57;;;;;;;4.72;1.02;;;17.20;57.60;;;;;;10487550;28;20024;-59
2022/01/20 19:43:58;;;;;;;7.78;1.55;;;17.20;57.70;;;;;;10538537;28;20039;-59
2022/01/20 19:48:59;;;;;;;4.05;1.20;;;17.20;57.80;;;;;;10499890;28;20032;-58
2022/01/20 19:54:01;;;;;;;4.13;1.33;;;17.20;57.70;;;;;;10494367;28;20494;-60
2022/01/20 19:59:01;;;;;;;5.25;1.38;;;17.20;57.70;;;;;;10490946;28;20479;-60
2022/01/20 20:04:03;;;;;;;5.05;1.35;;;17.20;57.90;;;;;;10506659;28;20035;-59
2022/01/20 20:09:06;;;;;;;4.32;1.00;;;17.20;57.80;;;;;;10501203;28;20036;-60
2022/01/20 20:14:07;;;;;;;3.83;0.90;;;17.20;57.60;;;;;;10506373;28;20051;-59
2022/01/20 20:19:09;;;;;;;7.13;1.13;;;17.30;57.30;;;;;;10506012;28;20039;-59
2022/01/20 20:24:13;;;;;;;3.08;1.13;;;17.40;56.90;;;;;;10499195;28;20029;-59
2022/01/20 20:29:16;;;;;;;2.80;1.17;;;17.50;56.50;;;;;;10518754;28;20479;-60
2022/01/20 20:34:17;;;;;;;3.35;1.30;;;17.70;56.40;;;;;;10525758;28;20048;-61
2022/01/20 20:39:20;;;;;;;3.92;1.05;;;17.70;56.00;;;;;;10487324;28;20020;-61
2022/01/20 20:44:23;;;;;;;3.20;1.00;;;17.60;56.10;;;;;;10522138;28;20060;-61
2022/01/20 20:49:29;;;;;;;3.17;1.10;;;17.60;56.30;;;;;;10508334;28;20665;-60
2022/01/20 20:54:31;;;;;;;5.82;1.15;;;17.50;56.40;;;;;;10482087;28;20131;-61
2022/01/20 20:59:32;;;;;;;2.17;1.05;;;17.40;56.60;;;;;;10510846;28;20035;-60
2022/01/20 21:04:32;;;;;;;3.97;0.90;;;17.30;56.80;;;;;;10519598;28;20039;-60
2022/01/20 21:09:34;;;;;;;3.67;1.55;;;17.30;56.80;;;;;;10515940;28;20059;-60
2022/01/20 21:14:36;;;;;;;3.22;1.02;;;17.30;56.80;;;;;;10516504;28;20484;-61
2022/01/20 21:19:39;;;;;;;2.13;1.08;;;17.30;56.70;;;;;;10491808;28;20034;-61
2022/01/20 21:24:41;;;;;;;3.55;0.90;;;17.30;56.60;;;;;;10509025;28;20036;-60
2022/01/20 21:29:42;;;;;;;3.10;1.23;;;17.30;56.50;;;;;;10487666;28;20427;-61
2022/01/20 21:34:44;;;;;;;1.35;0.80;;;17.30;57.00;;;;;;10497585;28;20135;-61
2022/01/20 21:39:45;;;;;;;3.72;1.17;;;17.30;56.40;;;;;;10510550;28;20035;-61
2022/01/20 21:44:46;;;;;;;3.47;0.85;;;17.20;56.40;;;;;;10486095;28;20054;-61
2022/01/20 21:49:47;;;;;;;2.90;1.38;;;17.20;56.50;;;;;;10511421;28;20024;-58
2022/01/20 21:54:48;;;;;;;3.47;1.38;;;17.20;56.50;;;;;;10511887;28;20044;-59
2022/01/20 21:59:49;;;;;;;1.65;1.02;;;17.20;56.50;;;;;;10523628;28;20028;-59
2022/01/20 22:04:50;;;;;;;2.72;1.00;;;17.20;56.60;;;;;;10496363;28;20074;-57
2022/01/20 22:09:53;;;;;;;4.13;1.20;;;17.20;56.60;;;;;;10507506;28;20529;-59
2022/01/20 22:14:54;;;;;;;2.15;0.80;;;17.20;56.40;;;;;;10542637;28;20027;-61
2022/01/20 22:19:55;;;;;;;3.03;1.33;;;17.20;56.40;;;;;;10468544;28;20157;-60
2022/01/20 22:24:57;;;;;;;4.47;1.27;;;17.20;56.40;;;;;;10536048;28;20172;-59
2022/01/20 22:29:57;;;;;;;2.78;1.20;;;17.20;56.40;;;;;;10527102;28;20125;-60
2022/01/20 22:34:58;;;;;;;2.40;0.88;;;17.20;56.30;;;;;;10523773;28;20090;-60
2022/01/20 22:39:59;;;;;;;2.67;0.88;;;17.20;56.20;;;;;;10499599;28;20140;-60
2022/01/20 22:44:59;;;;;;;3.35;1.00;;;17.20;56.10;;;;;;10469102;28;20468;-60
2022/01/20 22:50:00;;;;;;;6.35;1.35;;;17.20;56.20;;;;;;10508804;28;20042;-60
2022/01/20 22:55:02;;;;;;;2.45;1.00;;;17.20;56.20;;;;;;10508736;28;20088;-61
2022/01/20 23:00:16;;;;;;;2.97;0.93;;;17.10;56.20;;;;;;10500126;28;20052;-60
2022/01/20 23:05:22;;;;;;;2.85;1.10;;;17.20;56.30;;;;;;10494350;28;20031;-60
2022/01/20 23:10:26;;;;;;;2.72;1.10;;;17.20;56.00;;;;;;10498513;28;20090;-60
2022/01/20 23:15:32;;;;;;;2.38;0.88;;;17.30;56.10;;;;;;10479752;28;20384;-60
2022/01/20 23:20:48;;;;;;;2.50;0.80;;;17.20;55.90;;;;;;10510864;28;20040;-60
2022/01/20 23:26:03;;;;;;;2.63;0.88;;;17.20;55.90;;;;;;10516871;28;20059;-60
2022/01/20 23:31:07;;;;;;;3.33;0.95;;;17.20;55.90;;;;;;10481098;28;20024;-60
2022/01/20 23:36:09;;;;;;;1.38;0.63;;;17.20;55.90;;;;;;10439988;28;20045;-60
2022/01/20 23:41:15;;;;;;;2.92;1.15;;;17.20;55.70;;;;;;10439858;28;20025;-59
2022/01/20 23:51:39;;;;;;;2.65;0.85;;;17.20;55.90;;;;;;10444568;28;20112;-59
2022/01/20 23:56:41;;;;;;;2.83;0.88;;;17.20;55.70;;;;;;10423925;28;20025;-58
